Time;durP1;ratioP1;P1;durP2;ratioP2;P2;SDS_P1;SDS_P2;PMS_P1;PMS_P2;Temp;Humidity;BMP_temperature;BMP_pressure;BME280_temperature;BME280_humidity;BME280_pressure;Samples;Min_cycle;Max_cycle;Signal;HPM_P1;HPM_P2
2023/07/22 00:01:20;;;;;;;7.55;3.42;;;;;;;;;;5040850;28;20040;-46
2023/07/22 00:03:45;;;;;;;2.63;1.57;;;;;;;;;;5030212;28;20507;-46
2023/07/22 00:06:11;;;;;;;6.47;2.60;;;;;;;;;;5039342;28;20302;-46
2023/07/22 00:08:37;;;;;;;5.53;2.70;;;;;;;;;;5038772;28;20287;-47
2023/07/22 00:11:02;;;;;;;5.30;2.58;;;;;;;;;;5037976;28;20040;-46
2023/07/22 00:13:28;;;;;;;3.95;2.75;;;;;;;;;;5034947;28;20025;-46
2023/07/22 00:15:53;;;;;;;5.90;3.30;;;;;;;;;;5032689;28;20025;-46
2023/07/22 00:18:19;;;;;;;6.32;3.05;;;;;;;;;;5038196;28;20029;-46
2023/07/22 00:20:44;;;;;;;6.13;4.50;;;;;;;;;;5041947;28;20501;-46
2023/07/22 00:23:10;;;;;;;7.10;5.03;;;;;;;;;;5029250;28;20036;-46
2023/07/22 00:25:36;;;;;;;5.22;4.07;;;;;;;;;;5035991;28;20036;-46
2023/07/22 00:28:01;;;;;;;6.93;4.82;;;;;;;;;;5029082;28;20036;-47
2023/07/22 00:30:28;;;;;;;6.22;3.63;;;;;;;;;;5035518;28;20037;-46
2023/07/22 00:32:53;;;;;;;5.15;3.13;;;;;;;;;;5042969;28;20423;-46
2023/07/22 00:35:18;;;;;;;4.68;2.60;;;;;;;;;;5039513;28;20100;-46
2023/07/22 00:37:44;;;;;;;5.07;2.70;;;;;;;;;;5036912;28;20034;-46
2023/07/22 00:40:11;;;;;;;3.50;2.60;;;;;;;;;;5038193;28;20283;-46
2023/07/22 00:42:37;;;;;;;4.18;2.70;;;;;;;;;;5038649;28;20079;-47
2023/07/22 00:45:02;;;;;;;4.50;3.30;;;;;;;;;;5035886;28;20064;-46
2023/07/22 00:47:28;;;;;;;4.93;3.08;;;;;;;;;;5032445;28;20149;-47
2023/07/22 00:49:54;;;;;;;3.97;2.80;;;;;;;;;;5036468;28;20026;-46
2023/07/22 00:52:20;;;;;;;3.25;2.35;;;;;;;;;;5020386;28;20404;-46
2023/07/22 00:54:45;;;;;;;4.97;2.80;;;;;;;;;;5033191;28;20499;-46
2023/07/22 00:57:11;;;;;;;3.38;1.55;;;;;;;;;;5036555;28;20033;-46
2023/07/22 00:59:37;;;;;;;4.25;2.45;;;;;;;;;;5038119;28;20033;-46
2023/07/22 01:02:03;;;;;;;5.07;2.90;;;;;;;;;;5027301;28;20040;-46
2023/07/22 01:04:28;;;;;;;3.45;2.58;;;;;;;;;;5036324;28;20029;-46
2023/07/22 01:06:54;;;;;;;4.72;3.28;;;;;;;;;;5040252;28;20048;-46
2023/07/22 01:09:19;;;;;;;3.80;2.90;;;;;;;;;;5035832;28;20021;-46
2023/07/22 01:11:45;;;;;;;5.23;2.40;;;;;;;;;;5034621;28;20173;-46
2023/07/22 01:14:10;;;;;;;3.88;2.60;;;;;;;;;;5038368;28;20279;-46
2023/07/22 01:16:35;;;;;;;3.50;2.43;;;;;;;;;;5038091;28;20033;-46
2023/07/22 01:19:01;;;;;;;3.90;2.83;;;;;;;;;;5036171;28;20762;-46
2023/07/22 01:21:26;;;;;;;6.18;3.30;;;;;;;;;;5034724;28;20040;-46
2023/07/22 01:23:52;;;;;;;3.92;2.63;;;;;;;;;;5034898;28;20025;-46
2023/07/22 01:26:18;;;;;;;5.65;2.90;;;;;;;;;;5037500;28;20104;-46
2023/07/22 01:28:43;;;;;;;5.97;3.13;;;;;;;;;;5038164;28;20039;-46
2023/07/22 01:31:09;;;;;;;4.32;3.00;;;;;;;;;;5028603;28;20462;-47
2023/07/22 01:33:34;;;;;;;6.57;3.13;;;;;;;;;;5036849;28;20080;-46
2023/07/22 01:36:00;;;;;;;5.33;3.10;;;;;;;;;;5039174;28;20494;-46
2023/07/22 01:38:25;;;;;;;4.07;3.25;;;;;;;;;;5038279;28;20290;-46
2023/07/22 01:40:50;;;;;;;7.63;3.45;;;;;;;;;;5033359;28;20056;-46
2023/07/22 01:43:15;;;;;;;4.37;3.40;;;;;;;;;;5036928;28;20021;-46
2023/07/22 01:45:42;;;;;;;5.90;3.13;;;;;;;;;;5039821;28;20288;-46
2023/07/22 01:48:07;;;;;;;4.78;3.20;;;;;;;;;;5023100;28;20282;-46
2023/07/22 01:50:33;;;;;;;4.47;3.47;;;;;;;;;;5035810;28;20033;-46
2023/07/22 01:52:58;;;;;;;7.57;3.40;;;;;;;;;;5042694;28;20079;-46
2023/07/22 01:55:24;;;;;;;4.25;2.67;;;;;;;;;;5035167;28;20090;-46
2023/07/22 01:57:49;;;;;;;8.80;3.55;;;;;;;;;;5038138;28;20055;-46
2023/07/22 02:00:15;;;;;;;6.30;3.35;;;;;;;;;;5042439;28;20017;-46
2023/07/22 02:02:41;;;;;;;6.63;3.35;;;;;;;;;;5040684;28;20037;-46
2023/07/22 02:05:07;;;;;;;7.28;3.53;;;;;;;;;;5041100;28;20060;-46
2023/07/22 02:07:32;;;;;;;6.63;4.10;;;;;;;;;;5038466;28;20067;-46
2023/07/22 02:09:58;;;;;;;6.88;4.28;;;;;;;;;;5034076;28;20460;-46
2023/07/22 02:12:23;;;;;;;7.50;4.68;;;;;;;;;;5040962;28;20533;-46
2023/07/22 02:14:48;;;;;;;8.97;4.80;;;;;;;;;;5045464;28;20048;-46
2023/07/22 02:17:13;;;;;;;9.00;4.67;;;;;;;;;;5045284;28;20684;-46
2023/07/22 02:19:39;;;;;;;6.68;4.20;;;;;;;;;;5036656;28;20037;-47
2023/07/22 02:22:04;;;;;;;9.07;4.67;;;;;;;;;;5032472;28;20033;-46
2023/07/22 02:24:30;;;;;;;8.90;4.30;;;;;;;;;;5041650;28;20272;-46
2023/07/22 02:26:55;;;;;;;9.38;4.88;;;;;;;;;;5042398;28;20066;-46
2023/07/22 02:29:20;;;;;;;8.77;4.53;;;;;;;;;;5030242;28;20064;-45
2023/07/22 02:31:46;;;;;;;11.13;4.63;;;;;;;;;;5034501;28;20350;-46
2023/07/22 02:34:11;;;;;;;12.52;5.53;;;;;;;;;;5044008;28;20419;-46
2023/07/22 02:36:37;;;;;;;6.95;4.97;;;;;;;;;;5041180;28;20082;-46
2023/07/22 02:39:03;;;;;;;7.40;4.80;;;;;;;;;;5036585;28;20045;-46
2023/07/22 02:41:28;;;;;;;7.05;4.80;;;;;;;;;;5039113;28;20118;-46
2023/07/22 02:43:53;;;;;;;8.00;5.37;;;;;;;;;;5035142;28;20036;-46
2023/07/22 02:46:18;;;;;;;9.73;4.82;;;;;;;;;;5041109;28;21067;-46
2023/07/22 02:48:44;;;;;;;8.50;5.18;;;;;;;;;;5037965;28;20079;-46
2023/07/22 02:51:12;;;;;;;9.85;5.00;;;;;;;;;;5028286;28;20083;-47
2023/07/22 02:53:38;;;;;;;12.27;5.63;;;;;;;;;;5015319;28;20021;-46
2023/07/22 02:56:06;;;;;;;8.75;4.95;;;;;;;;;;5041253;28;20033;-46
2023/07/22 02:58:32;;;;;;;10.82;5.65;;;;;;;;;;5042128;28;20132;-46
2023/07/22 03:00:57;;;;;;;14.45;5.68;;;;;;;;;;5043292;28;20120;-46
2023/07/22 03:03:23;;;;;;;6.97;4.45;;;;;;;;;;5026162;28;20449;-46
2023/07/22 03:05:48;;;;;;;9.43;6.83;;;;;;;;;;5037672;28;20067;-46
2023/07/22 03:08:13;;;;;;;5.93;4.82;;;;;;;;;;5039152;28;20641;-46
2023/07/22 03:10:38;;;;;;;11.80;5.63;;;;;;;;;;5039189;28;20458;-46
2023/07/22 03:13:04;;;;;;;12.30;4.40;;;;;;;;;;5022831;28;20276;-46
2023/07/22 03:15:29;;;;;;;8.97;5.43;;;;;;;;;;5038431;28;20280;-46
2023/07/22 03:18:01;;;;;;;11.02;5.90;;;;;;;;;;5043902;28;20834;-46
2023/07/22 03:20:26;;;;;;;7.82;4.63;;;;;;;;;;5044051;28;20033;-46
2023/07/22 03:22:52;;;;;;;9.10;4.50;;;;;;;;;;5033859;28;20045;-46
2023/07/22 03:25:17;;;;;;;7.82;5.03;;;;;;;;;;5034772;28;20279;-46
2023/07/22 03:27:43;;;;;;;19.67;5.10;;;;;;;;;;5022843;28;20034;-46
2023/07/22 03:30:10;;;;;;;8.27;4.72;;;;;;;;;;5038423;28;20356;-46
2023/07/22 03:32:36;;;;;;;10.25;5.30;;;;;;;;;;5031103;28;20123;-46
2023/07/22 03:35:01;;;;;;;13.25;5.32;;;;;;;;;;5030418;28;20483;-46
2023/07/22 03:37:27;;;;;;;7.20;4.60;;;;;;;;;;5033296;28;20033;-46
2023/07/22 03:39:52;;;;;;;9.43;4.78;;;;;;;;;;5030114;28;20104;-46
2023/07/22 03:42:18;;;;;;;7.57;4.30;;;;;;;;;;5024684;28;20044;-46
2023/07/22 03:44:43;;;;;;;8.17;4.87;;;;;;;;;;5034743;28;20395;-46
2023/07/22 03:47:08;;;;;;;9.65;5.60;;;;;;;;;;5028519;28;20361;-49
2023/07/22 03:49:33;;;;;;;5.63;4.37;;;;;;;;;;5035570;28;20090;-46
2023/07/22 03:51:59;;;;;;;5.63;4.00;;;;;;;;;;5012124;28;20337;-47
2023/07/22 03:54:24;;;;;;;5.97;4.60;;;;;;;;;;5025550;28;20030;-46
2023/07/22 03:56:49;;;;;;;6.13;4.53;;;;;;;;;;5017026;28;20279;-46
2023/07/22 03:59:14;;;;;;;6.97;4.30;;;;;;;;;;5022784;28;20309;-47
2023/07/22 04:01:40;;;;;;;6.83;5.07;;;;;;;;;;5031227;28;20770;-46
2023/07/22 04:04:05;;;;;;;8.20;4.20;;;;;;;;;;5032132;28;20276;-46
2023/07/22 04:06:30;;;;;;;6.20;4.13;;;;;;;;;;5033753;28;20060;-47
2023/07/22 04:08:56;;;;;;;5.95;4.38;;;;;;;;;;5038128;28;20071;-47
2023/07/22 04:11:21;;;;;;;6.20;4.10;;;;;;;;;;5036320;28;20634;-46
2023/07/22 04:13:46;;;;;;;5.40;3.93;;;;;;;;;;5037603;28;20060;-46
2023/07/22 04:16:11;;;;;;;5.97;3.90;;;;;;;;;;5041186;28;20280;-46
2023/07/22 04:18:37;;;;;;;5.40;4.00;;;;;;;;;;5040011;28;20033;-46
2023/07/22 04:21:02;;;;;;;6.63;3.97;;;;;;;;;;5040314;28;20307;-46
2023/07/22 04:23:27;;;;;;;5.63;3.80;;;;;;;;;;5041562;28;20291;-46
2023/07/22 04:25:53;;;;;;;5.13;3.40;;;;;;;;;;5036541;28;20032;-46
2023/07/22 04:28:18;;;;;;;5.25;3.53;;;;;;;;;;5036777;28;20337;-46
2023/07/22 04:30:53;;;;;;;6.53;3.35;;;;;;;;;;5028903;28;20498;-46
2023/07/22 04:33:19;;;;;;;5.70;3.40;;;;;;;;;;5031269;28;20482;-46
2023/07/22 04:35:44;;;;;;;3.95;3.15;;;;;;;;;;5037183;28;20025;-46
2023/07/22 04:38:10;;;;;;;5.45;3.35;;;;;;;;;;5038976;28;20013;-46
2023/07/22 04:40:35;;;;;;;3.20;2.00;;;;;;;;;;5027310;28;20107;-46
2023/07/22 04:43:01;;;;;;;4.33;3.20;;;;;;;;;;5039371;28;20025;-46
2023/07/22 04:45:27;;;;;;;5.00;3.58;;;;;;;;;;5035283;28;20287;-46
2023/07/22 04:47:52;;;;;;;6.13;4.10;;;;;;;;;;5027329;28;20742;-46
2023/07/22 04:50:18;;;;;;;4.07;3.50;;;;;;;;;;5038809;28;20024;-46
2023/07/22 04:52:45;;;;;;;3.92;3.38;;;;;;;;;;5028070;28;20070;-46
2023/07/22 04:55:13;;;;;;;4.88;3.55;;;;;;;;;;5037747;28;20356;-47
2023/07/22 04:57:38;;;;;;;6.20;4.05;;;;;;;;;;5035538;28;20026;-46
2023/07/22 05:00:04;;;;;;;7.03;4.07;;;;;;;;;;5040781;28;20028;-46
2023/07/22 05:02:30;;;;;;;5.72;3.13;;;;;;;;;;5031061;28;20030;-47
2023/07/22 05:04:55;;;;;;;7.32;3.88;;;;;;;;;;5021034;28;20115;-45
2023/07/22 05:07:21;;;;;;;9.18;3.83;;;;;;;;;;5027273;28;20029;-46
2023/07/22 05:09:46;;;;;;;5.47;3.40;;;;;;;;;;5028699;28;20044;-46
2023/07/22 05:12:12;;;;;;;5.45;3.33;;;;;;;;;;5033053;28;20022;-46
2023/07/22 05:14:37;;;;;;;6.53;3.92;;;;;;;;;;5036586;28;20021;-46
2023/07/22 05:17:02;;;;;;;5.50;3.40;;;;;;;;;;5037533;28;20430;-46
2023/07/22 05:19:28;;;;;;;8.63;3.70;;;;;;;;;;5034321;28;20037;-46
2023/07/22 05:21:53;;;;;;;5.83;3.73;;;;;;;;;;5038557;28;20484;-46
2023/07/22 05:24:18;;;;;;;6.23;3.07;;;;;;;;;;5038444;28;20264;-46
2023/07/22 05:26:43;;;;;;;5.15;3.58;;;;;;;;;;5028461;28;20032;-47
2023/07/22 05:29:09;;;;;;;5.83;3.83;;;;;;;;;;5044280;28;20025;-46
2023/07/22 05:31:34;;;;;;;4.78;3.50;;;;;;;;;;5035188;28;20033;-46
2023/07/22 05:33:59;;;;;;;6.13;3.10;;;;;;;;;;5044399;28;20067;-46
2023/07/22 05:36:24;;;;;;;8.40;3.53;;;;;;;;;;5037277;28;20110;-46
2023/07/22 05:38:50;;;;;;;6.90;3.30;;;;;;;;;;5041059;28;20033;-47
2023/07/22 05:41:15;;;;;;;5.40;3.43;;;;;;;;;;5034977;28;21025;-46
2023/07/22 05:43:40;;;;;;;7.23;4.10;;;;;;;;;;5041899;28;20029;-46
2023/07/22 05:46:05;;;;;;;5.33;3.30;;;;;;;;;;5042039;28;20280;-46
2023/07/22 05:48:31;;;;;;;4.00;3.23;;;;;;;;;;5041151;28;20719;-46
2023/07/22 05:50:56;;;;;;;6.03;3.80;;;;;;;;;;5038755;28;20325;-46
2023/07/22 05:53:21;;;;;;;10.80;3.85;;;;;;;;;;5040770;28;20280;-46
2023/07/22 05:55:46;;;;;;;6.17;3.57;;;;;;;;;;5034551;28;20063;-46
2023/07/22 05:58:15;;;;;;;6.23;3.93;;;;;;;;;;5041709;28;20643;-46
2023/07/22 06:00:40;;;;;;;7.05;3.67;;;;;;;;;;5043108;28;20280;-46
2023/07/22 06:03:06;;;;;;;8.83;3.93;;;;;;;;;;5041705;28;20029;-46
2023/07/22 06:05:31;;;;;;;7.38;4.20;;;;;;;;;;5036149;28;20287;-46
2023/07/22 06:07:57;;;;;;;7.47;3.50;;;;;;;;;;5034544;28;20036;-46
2023/07/22 06:10:22;;;;;;;7.13;3.95;;;;;;;;;;5039858;28;20033;-46
2023/07/22 06:12:47;;;;;;;5.50;3.70;;;;;;;;;;5033521;28;20079;-46
2023/07/22 06:15:12;;;;;;;10.27;3.70;;;;;;;;;;5024560;28;20308;-46
2023/07/22 06:17:38;;;;;;;6.37;3.67;;;;;;;;;;5026878;28;20275;-45
2023/07/22 06:20:04;;;;;;;8.67;3.77;;;;;;;;;;5039139;28;20374;-46
2023/07/22 06:22:29;;;;;;;6.03;3.60;;;;;;;;;;5026955;28;20301;-46
2023/07/22 06:24:54;;;;;;;10.53;4.43;;;;;;;;;;5033448;28;20479;-46
2023/07/22 06:27:20;;;;;;;7.63;4.33;;;;;;;;;;5039010;28;20279;-46
2023/07/22 06:29:45;;;;;;;6.63;3.87;;;;;;;;;;5030888;28;20812;-46
2023/07/22 06:32:10;;;;;;;8.17;3.87;;;;;;;;;;5032712;28;20398;-46
2023/07/22 06:34:35;;;;;;;7.05;3.63;;;;;;;;;;5033102;28;20037;-47
2023/07/22 06:37:01;;;;;;;7.67;4.03;;;;;;;;;;5024620;28;20025;-46
2023/07/22 06:39:26;;;;;;;9.25;3.97;;;;;;;;;;5042118;28;20061;-46
2023/07/22 06:41:52;;;;;;;9.47;4.40;;;;;;;;;;5025820;28;20585;-46
2023/07/22 06:44:17;;;;;;;6.77;3.67;;;;;;;;;;5038194;28;20025;-46
2023/07/22 06:46:44;;;;;;;6.80;3.50;;;;;;;;;;5035313;28;20017;-46
2023/07/22 06:49:09;;;;;;;7.10;3.53;;;;;;;;;;5029599;28;20466;-46
2023/07/22 06:51:34;;;;;;;6.65;3.97;;;;;;;;;;5041206;28;20025;-46
2023/07/22 06:53:59;;;;;;;7.33;3.40;;;;;;;;;;5044728;28;20483;-46
2023/07/22 06:56:26;;;;;;;6.50;3.97;;;;;;;;;;5035934;28;20280;-46
2023/07/22 06:58:51;;;;;;;8.80;4.13;;;;;;;;;;5040993;28;20112;-46
2023/07/22 07:01:16;;;;;;;6.93;3.90;;;;;;;;;;5032308;28;20037;-46
2023/07/22 07:03:42;;;;;;;7.57;3.50;;;;;;;;;;5036770;28;20843;-46
2023/07/22 07:06:07;;;;;;;8.45;4.30;;;;;;;;;;5039704;28;20021;-46
2023/07/22 07:08:32;;;;;;;8.77;4.20;;;;;;;;;;5042950;28;20552;-46
2023/07/22 07:10:59;;;;;;;7.40;3.95;;;;;;;;;;5039114;28;20025;-46
2023/07/22 07:13:24;;;;;;;6.88;4.22;;;;;;;;;;5038479;28;20079;-46
2023/07/22 07:15:49;;;;;;;6.03;3.58;;;;;;;;;;5038828;28;20032;-46
2023/07/22 07:18:14;;;;;;;9.17;4.27;;;;;;;;;;5033998;28;20064;-46
2023/07/22 07:20:40;;;;;;;5.90;3.53;;;;;;;;;;5036288;28;20286;-46
2023/07/22 07:23:05;;;;;;;7.00;4.30;;;;;;;;;;5024011;28;20056;-46
2023/07/22 07:25:30;;;;;;;6.60;3.77;;;;;;;;;;5026276;28;20498;-46
2023/07/22 07:27:56;;;;;;;10.20;4.17;;;;;;;;;;5026590;28;20025;-46
2023/07/22 07:30:21;;;;;;;8.97;3.20;;;;;;;;;;5013341;28;20283;-46
2023/07/22 07:32:46;;;;;;;5.97;3.78;;;;;;;;;;5029234;28;20398;-46
2023/07/22 07:35:11;;;;;;;4.97;2.87;;;;;;;;;;5019844;28;20033;-46
2023/07/22 07:37:37;;;;;;;7.37;2.60;;;;;;;;;;5021419;28;20263;-46
2023/07/22 07:40:03;;;;;;;5.97;3.20;;;;;;;;;;5029437;28;20283;-46
2023/07/22 07:42:28;;;;;;;5.13;2.30;;;;;;;;;;5023601;28;20044;-46
2023/07/22 07:44:54;;;;;;;5.10;2.75;;;;;;;;;;5021962;28;20029;-47
2023/07/22 07:47:19;;;;;;;4.95;2.70;;;;;;;;;;5039615;28;20037;-46
2023/07/22 07:49:45;;;;;;;4.82;2.60;;;;;;;;;;5033401;28;20051;-46
2023/07/22 07:52:10;;;;;;;4.32;2.10;;;;;;;;;;5037818;28;20021;-47
2023/07/22 07:54:35;;;;;;;5.67;2.50;;;;;;;;;;5038545;28;20080;-46
2023/07/22 07:57:00;;;;;;;5.67;2.77;;;;;;;;;;5029691;28;20029;-46
2023/07/22 07:59:26;;;;;;;5.57;2.77;;;;;;;;;;5017195;28;20981;-46
2023/07/22 08:01:51;;;;;;;9.60;2.60;;;;;;;;;;5017405;28;20075;-46
2023/07/22 08:04:19;;;;;;;3.70;2.47;;;;;;;;;;5032081;28;20059;-46
2023/07/22 08:06:45;;;;;;;4.93;2.55;;;;;;;;;;5037709;28;20029;-46
2023/07/22 08:09:10;;;;;;;5.38;2.47;;;;;;;;;;5030756;28;20029;-46
2023/07/22 08:11:36;;;;;;;4.57;2.40;;;;;;;;;;5027242;28;20029;-46
2023/07/22 08:14:01;;;;;;;5.45;2.67;;;;;;;;;;5030817;28;20039;-46
2023/07/22 08:16:27;;;;;;;11.50;3.35;;;;;;;;;;5030834;28;20416;-46
2023/07/22 08:18:53;;;;;;;6.25;2.42;;;;;;;;;;5031790;28;20356;-46
2023/07/22 08:21:19;;;;;;;6.82;2.58;;;;;;;;;;5035853;28;30327;-46
2023/07/22 08:23:46;;;;;;;6.05;2.90;;;;;;;;;;5029185;28;20029;-46
2023/07/22 08:26:12;;;;;;;8.00;2.83;;;;;;;;;;5035199;28;20039;-46
2023/07/22 08:28:37;;;;;;;6.78;2.90;;;;;;;;;;5028476;28;20040;-46
2023/07/22 08:31:02;;;;;;;5.77;2.87;;;;;;;;;;5032871;28;20455;-46
2023/07/22 08:33:28;;;;;;;10.80;3.28;;;;;;;;;;5035624;28;20353;-46
2023/07/22 08:35:53;;;;;;;9.55;3.13;;;;;;;;;;5037642;28;20029;-47
2023/07/22 08:38:19;;;;;;;5.78;2.70;;;;;;;;;;5028107;28;20754;-46
2023/07/22 08:40:44;;;;;;;9.02;3.60;;;;;;;;;;5035408;28;20036;-46
2023/07/22 08:43:10;;;;;;;7.38;3.40;;;;;;;;;;5039307;28;20610;-46
2023/07/22 08:45:37;;;;;;;7.93;3.17;;;;;;;;;;5028352;28;20036;-46
2023/07/22 08:48:07;;;;;;;6.40;2.95;;;;;;;;;;5031799;28;20293;-46
2023/07/22 08:50:53;;;;;;;6.63;3.03;;;;;;;;;;5016670;28;20060;-46
2023/07/22 08:53:21;;;;;;;7.68;3.30;;;;;;;;;;5026284;28;20767;-46
2023/07/22 08:55:47;;;;;;;5.80;3.60;;;;;;;;;;5032360;28;20108;-47
2023/07/22 08:58:14;;;;;;;7.22;3.78;;;;;;;;;;5030360;28;20025;-46
2023/07/22 09:00:40;;;;;;;7.07;3.72;;;;;;;;;;5029536;28;20151;-47
2023/07/22 09:03:05;;;;;;;7.88;3.25;;;;;;;;;;5031405;28;20160;-47
2023/07/22 09:05:31;;;;;;;7.05;3.05;;;;;;;;;;5035999;28;20036;-46
2023/07/22 09:07:57;;;;;;;6.70;3.35;;;;;;;;;;5036373;28;20021;-46
2023/07/22 09:10:24;;;;;;;6.10;3.03;;;;;;;;;;5033665;28;20029;-46
2023/07/22 09:12:50;;;;;;;8.25;2.60;;;;;;;;;;5036773;28;20037;-46
2023/07/22 09:18:18;;;;;;;5.88;3.00;;;;;;;;;;5067291;27;1377503;-46
2023/07/22 09:20:44;;;;;;;8.27;3.13;;;;;;;;;;5125200;27;20109;-46
2023/07/22 09:23:09;;;;;;;7.15;3.78;;;;;;;;;;5133130;27;20067;-45
2023/07/22 09:25:34;;;;;;;5.30;2.40;;;;;;;;;;5114977;27;20058;-46
2023/07/22 09:28:00;;;;;;;7.03;2.20;;;;;;;;;;5108019;27;20023;-46
2023/07/22 09:30:30;;;;;;;4.38;1.95;;;;;;;;;;5113277;27;20366;-45
2023/07/22 09:32:57;;;;;;;4.95;2.53;;;;;;;;;;5112477;27;20023;-45
2023/07/22 09:35:22;;;;;;;6.68;3.53;;;;;;;;;;5124726;27;20036;-46
2023/07/22 09:37:48;;;;;;;6.18;2.30;;;;;;;;;;5117068;27;20022;-45
2023/07/22 09:40:15;;;;;;;3.88;2.13;;;;;;;;;;5116914;27;20027;-46
2023/07/22 09:42:42;;;;;;;6.43;3.50;;;;;;;;;;5117066;27;20020;-45
2023/07/22 09:45:08;;;;;;;4.10;2.05;;;;;;;;;;5110598;28;20102;-45
2023/07/22 09:47:43;;;;;;;5.53;3.20;;;;;;;;;;5110104;27;20038;-46
2023/07/22 09:50:13;;;;;;;5.80;2.90;;;;;;;;;;5119026;27;20050;-45
2023/07/22 09:53:03;;;;;;;5.07;1.98;;;;;;;;;;5113304;27;20023;-45
2023/07/22 09:55:29;;;;;;;4.80;2.20;;;;;;;;;;5119712;27;20023;-46
2023/07/22 09:58:02;;;;;;;4.30;1.90;;;;;;;;;;5119859;27;20053;-46
2023/07/22 10:00:31;;;;;;;5.82;2.20;;;;;;;;;;5108703;27;20080;-45
2023/07/22 10:02:57;;;;;;;4.07;2.10;;;;;;;;;;5110633;27;20019;-45
2023/07/22 10:05:24;;;;;;;6.05;2.25;;;;;;;;;;5119922;27;20016;-45
2023/07/22 10:07:49;;;;;;;4.65;2.10;;;;;;;;;;5116830;27;20037;-45
2023/07/22 10:10:16;;;;;;;4.78;2.38;;;;;;;;;;5113293;27;20102;-46
2023/07/22 10:12:42;;;;;;;7.30;2.20;;;;;;;;;;5119501;27;20022;-45
2023/07/22 10:15:08;;;;;;;4.68;1.90;;;;;;;;;;5116786;27;20027;-45
2023/07/22 10:17:33;;;;;;;4.50;2.17;;;;;;;;;;5108139;27;20023;-45
2023/07/22 10:19:59;;;;;;;3.25;1.70;;;;;;;;;;5119603;27;20040;-46
2023/07/22 10:22:24;;;;;;;5.30;1.90;;;;;;;;;;5116408;27;20024;-46
2023/07/22 10:24:50;;;;;;;5.38;2.58;;;;;;;;;;5119276;28;20114;-46
2023/07/22 10:27:16;;;;;;;5.55;2.33;;;;;;;;;;5117684;27;20377;-46
2023/07/22 10:29:43;;;;;;;5.05;2.22;;;;;;;;;;5105694;27;20033;-45
2023/07/22 10:32:09;;;;;;;4.50;2.03;;;;;;;;;;5101186;27;20049;-46
2023/07/22 10:34:34;;;;;;;5.18;1.88;;;;;;;;;;5106636;28;20031;-45
2023/07/22 10:36:59;;;;;;;5.33;2.00;;;;;;;;;;5104900;28;20023;-45
2023/07/22 10:39:26;;;;;;;7.25;2.00;;;;;;;;;;5102160;28;20493;-45
2023/07/22 10:41:57;;;;;;;4.95;2.20;;;;;;;;;;5102580;27;20031;-46
2023/07/22 10:44:25;;;;;;;4.25;1.95;;;;;;;;;;5097125;28;20564;-47
2023/07/22 10:46:56;;;;;;;5.20;2.25;;;;;;;;;;5095250;28;20032;-45
2023/07/22 10:49:22;;;;;;;4.40;1.88;;;;;;;;;;5100225;28;20024;-45
2023/07/22 10:51:48;;;;;;;4.83;1.60;;;;;;;;;;5105573;28;20024;-45
2023/07/22 10:54:13;;;;;;;4.32;1.63;;;;;;;;;;5102260;28;20281;-46
2023/07/22 10:56:48;;;;;;;3.65;1.70;;;;;;;;;;5103020;28;20031;-47
2023/07/22 10:59:13;;;;;;;5.28;1.80;;;;;;;;;;5105953;28;20027;-45
2023/07/22 11:01:43;;;;;;;4.50;1.63;;;;;;;;;;5106568;27;20085;-46
2023/07/22 11:04:12;;;;;;;2.83;1.65;;;;;;;;;;5096370;28;20786;-47
2023/07/22 11:06:43;;;;;;;3.15;1.70;;;;;;;;;;5100853;28;20031;-46
2023/07/22 11:09:30;;;;;;;5.35;1.73;;;;;;;;;;5102596;28;20023;-46
2023/07/22 11:11:57;;;;;;;2.95;1.60;;;;;;;;;;5090849;28;20054;-46
2023/07/22 11:14:23;;;;;;;5.55;1.27;;;;;;;;;;5079369;27;20019;-46
2023/07/22 11:16:48;;;;;;;5.88;1.77;;;;;;;;;;5090100;27;20080;-46
2023/07/22 11:19:14;;;;;;;5.87;2.30;;;;;;;;;;5093481;28;20031;-46
2023/07/22 11:21:40;;;;;;;6.93;1.67;;;;;;;;;;5104305;27;20316;-45
2023/07/22 11:24:06;;;;;;;3.88;1.38;;;;;;;;;;5104466;28;20086;-46
2023/07/22 11:26:32;;;;;;;4.28;1.33;;;;;;;;;;5091919;28;20035;-45
2023/07/22 11:28:59;;;;;;;2.88;1.20;;;;;;;;;;5107901;28;20053;-45
2023/07/22 11:31:30;;;;;;;3.38;1.58;;;;;;;;;;5103884;27;20023;-45
2023/07/22 11:33:56;;;;;;;2.85;1.40;;;;;;;;;;5100786;28;20059;-45
2023/07/22 11:36:21;;;;;;;4.00;1.55;;;;;;;;;;5089845;28;20149;-45
2023/07/22 11:38:46;;;;;;;3.53;1.40;;;;;;;;;;5102863;28;20102;-46
2023/07/22 11:41:12;;;;;;;5.75;1.33;;;;;;;;;;5104247;28;20035;-46
2023/07/22 11:43:37;;;;;;;5.78;1.40;;;;;;;;;;5103008;27;20024;-46
2023/07/22 11:46:04;;;;;;;2.53;1.10;;;;;;;;;;5095957;28;20031;-45
2023/07/22 11:48:30;;;;;;;3.83;1.30;;;;;;;;;;5090623;28;20019;-45
2023/07/22 11:50:58;;;;;;;1.90;0.90;;;;;;;;;;5100613;28;20024;-46
2023/07/22 11:53:27;;;;;;;3.58;1.10;;;;;;;;;;5092873;28;20038;-45
2023/07/22 11:55:53;;;;;;;3.00;1.35;;;;;;;;;;5084563;27;20047;-45
2023/07/22 11:58:25;;;;;;;3.25;0.80;;;;;;;;;;5094384;28;20489;-46
2023/07/22 12:01:01;;;;;;;2.67;1.20;;;;;;;;;;5100516;28;20028;-45
2023/07/22 12:03:30;;;;;;;5.63;1.33;;;;;;;;;;5097486;28;20050;-46
2023/07/22 12:05:55;;;;;;;4.65;1.20;;;;;;;;;;5100017;28;20023;-45
2023/07/22 12:08:21;;;;;;;2.80;1.02;;;;;;;;;;5102276;28;20028;-46
2023/07/22 12:10:55;;;;;;;4.07;1.33;;;;;;;;;;5102196;27;20016;-45
2023/07/22 12:13:20;;;;;;;3.33;1.33;;;;;;;;;;5093200;28;20483;-45
2023/07/22 12:15:58;;;;;;;2.53;1.33;;;;;;;;;;5097980;28;20106;-46
2023/07/22 12:18:23;;;;;;;3.00;1.05;;;;;;;;;;5097919;28;20106;-46
2023/07/22 12:20:49;;;;;;;3.17;1.20;;;;;;;;;;5095195;27;20347;-46
2023/07/22 12:23:15;;;;;;;5.47;1.65;;;;;;;;;;5099374;28;20020;-46
2023/07/22 12:25:40;;;;;;;2.30;1.20;;;;;;;;;;5105616;28;20078;-46
2023/07/22 12:28:06;;;;;;;3.67;1.50;;;;;;;;;;5102265;28;20101;-45
2023/07/22 12:30:31;;;;;;;3.10;1.30;;;;;;;;;;5096051;28;20027;-45
2023/07/22 12:32:56;;;;;;;3.40;1.27;;;;;;;;;;5103827;28;20020;-45
2023/07/22 12:35:22;;;;;;;2.30;1.23;;;;;;;;;;5097723;27;20328;-46
2023/07/22 12:37:47;;;;;;;2.80;1.75;;;;;;;;;;5094927;28;20047;-45
2023/07/22 12:40:14;;;;;;;3.90;1.40;;;;;;;;;;5105378;28;20075;-45
2023/07/22 12:42:40;;;;;;;7.47;1.27;;;;;;;;;;5102517;27;20281;-46
2023/07/22 12:45:05;;;;;;;1.75;0.77;;;;;;;;;;5103387;28;20036;-46
2023/07/22 12:47:31;;;;;;;2.10;1.15;;;;;;;;;;5093558;28;20760;-45
2023/07/22 12:49:56;;;;;;;3.03;1.40;;;;;;;;;;5100069;28;20023;-45
2023/07/22 12:52:21;;;;;;;2.78;1.30;;;;;;;;;;5101646;27;20040;-46
2023/07/22 12:54:46;;;;;;;3.27;1.27;;;;;;;;;;5100098;28;20024;-46
2023/07/22 12:57:12;;;;;;;2.77;1.30;;;;;;;;;;5098843;28;20293;-46
2023/07/22 12:59:37;;;;;;;4.40;2.00;;;;;;;;;;5100810;28;20019;-46
2023/07/22 13:02:02;;;;;;;3.43;1.33;;;;;;;;;;5096962;27;20278;-45
2023/07/22 13:04:28;;;;;;;3.20;1.33;;;;;;;;;;5100641;28;20284;-45
2023/07/22 13:06:53;;;;;;;2.93;1.60;;;;;;;;;;5091927;28;20323;-46
2023/07/22 13:09:18;;;;;;;3.60;1.27;;;;;;;;;;5082927;28;20673;-46
2023/07/22 13:11:44;;;;;;;4.68;1.45;;;;;;;;;;5090890;27;20281;-46
2023/07/22 13:14:09;;;;;;;2.13;1.10;;;;;;;;;;5090640;28;20081;-46
2023/07/22 13:16:34;;;;;;;4.07;1.33;;;;;;;;;;5100161;28;20108;-46
2023/07/22 13:19:00;;;;;;;2.87;1.40;;;;;;;;;;5096600;28;20019;-46
2023/07/22 13:21:26;;;;;;;5.72;1.40;;;;;;;;;;5087645;28;20028;-46
2023/07/22 13:23:51;;;;;;;5.80;1.60;;;;;;;;;;5099307;28;20027;-46
2023/07/22 13:26:16;;;;;;;4.87;1.37;;;;;;;;;;5099295;28;20031;-45
2023/07/22 13:28:42;;;;;;;3.83;1.40;;;;;;;;;;5099181;28;20023;-46
2023/07/22 13:31:07;;;;;;;2.87;1.27;;;;;;;;;;5093079;28;20060;-45
2023/07/22 13:33:32;;;;;;;3.33;1.37;;;;;;;;;;5095865;28;20100;-46
2023/07/22 13:35:57;;;;;;;4.37;1.47;;;;;;;;;;5096986;28;20444;-46
2023/07/22 13:38:23;;;;;;;4.07;1.43;;;;;;;;;;5092690;28;20070;-45
2023/07/22 13:40:48;;;;;;;2.60;1.23;;;;;;;;;;5094757;28;20020;-46
2023/07/22 13:43:13;;;;;;;5.25;1.30;;;;;;;;;;5100095;28;20296;-46
2023/07/22 13:45:38;;;;;;;2.60;1.30;;;;;;;;;;5096554;28;20500;-46
2023/07/22 13:48:04;;;;;;;2.75;1.35;;;;;;;;;;5096249;28;20289;-46
2023/07/22 13:50:30;;;;;;;2.45;0.93;;;;;;;;;;5083930;28;20153;-46
2023/07/22 13:52:56;;;;;;;7.03;1.65;;;;;;;;;;5094967;28;20026;-46
2023/07/22 13:55:21;;;;;;;3.50;1.17;;;;;;;;;;5100978;28;20023;-46
2023/07/22 13:57:46;;;;;;;2.00;0.87;;;;;;;;;;5103275;28;20031;-46
2023/07/22 14:00:13;;;;;;;2.03;1.17;;;;;;;;;;5075898;28;20338;-46
2023/07/22 14:02:39;;;;;;;2.38;1.13;;;;;;;;;;5083507;28;20273;-46
2023/07/22 14:05:05;;;;;;;4.47;1.23;;;;;;;;;;5090759;27;20054;-46
2023/07/22 14:07:30;;;;;;;3.30;1.52;;;;;;;;;;5094664;27;20400;-47
2023/07/22 14:09:56;;;;;;;4.90;1.40;;;;;;;;;;5101245;28;20030;-46
2023/07/22 14:12:21;;;;;;;5.37;1.20;;;;;;;;;;5097248;28;20373;-46
2023/07/22 14:14:46;;;;;;;3.00;1.10;;;;;;;;;;5100500;27;20032;-46
2023/07/22 14:17:12;;;;;;;5.57;1.50;;;;;;;;;;5097693;27;21256;-45
2023/07/22 14:19:37;;;;;;;3.80;1.90;;;;;;;;;;5102863;28;20058;-45
2023/07/22 14:22:03;;;;;;;8.10;1.10;;;;;;;;;;5083801;27;20024;-46
2023/07/22 14:24:28;;;;;;;2.47;1.05;;;;;;;;;;5089341;27;20305;-46
2023/07/22 14:26:53;;;;;;;3.33;1.37;;;;;;;;;;5091913;27;20047;-45
2023/07/22 14:29:20;;;;;;;5.27;1.17;;;;;;;;;;5102032;28;20028;-46
2023/07/22 14:31:45;;;;;;;1.80;0.90;;;;;;;;;;5094944;27;20277;-46
2023/07/22 14:34:11;;;;;;;2.57;1.33;;;;;;;;;;5100632;28;20500;-46
2023/07/22 14:36:36;;;;;;;4.23;1.43;;;;;;;;;;5093818;27;20303;-46
2023/07/22 14:39:01;;;;;;;2.97;1.37;;;;;;;;;;5105415;27;20288;-45